Flight Track Log - Related Links

Times and Time Zones

All times are in EDT time to prevent confusion due to time zone crossing. See the PDC2807 flight status page for this flight to view local times or setup timezone preferences in your user account.

Time Position Orientation Groundspeed Altitude Reporting Facility
EDT Latitude Longitude Course Direction KTS MPH feet Rate Location/Type
Sat 11:59:00 PM 45.4113 126.9241 114° Southeast  Level Estimated
Sun 12:00:00 AM 45.3899 126.9912 114° Southeast  Level Estimated
Sun 12:01:00 AM 45.3684 127.0583 114° Southeast  Level Estimated
Sun 12:02:00 AM 45.3469 127.1253 115° Southeast  Level Estimated
Sun 12:03:00 AM 45.3254 127.1923 115° Southeast  Level Estimated
Sun 12:04:00 AM 45.3038 127.2591 115° Southeast  Level Estimated
Sun 12:05:00 AM 45.2822 127.3260 115° Southeast  Level Estimated
Sun 12:06:00 AM 45.2605 127.3928 115° Southeast  Level Estimated
Sun 12:07:00 AM 45.2388 127.4595 115° Southeast  Level Estimated
Sun 12:08:00 AM 45.2171 127.5262 115° Southeast  Level Estimated
Sun 12:09:00 AM 45.1953 127.5929 115° Southeast  Level Estimated
Sun 12:10:00 AM 45.1735 127.6595 115° Southeast  Level Estimated
Sun 12:11:00 AM 45.1516 127.7260 115° Southeast  Level Estimated
Sun 12:12:00 AM 45.1297 127.7925 115° Southeast  Level Estimated
Sun 12:13:00 AM 45.1078 127.8589 115° Southeast  Level Estimated
Sun 12:14:00 AM 45.0858 127.9253 115° Southeast  Level Estimated
Sun 12:15:00 AM 45.0638 127.9917 115° Southeast  Level Estimated
Sun 12:16:00 AM 45.0418 128.0580 115° Southeast  Level Estimated
Sun 12:17:00 AM 45.0197 128.1242 115° Southeast  Level Estimated
Sun 12:18:00 AM 44.9976 128.1904 115° Southeast  Level Estimated
Sun 12:19:00 AM 44.9754 128.2565 115° Southeast  Level Estimated
Sun 12:20:00 AM 44.9532 128.3226 115° Southeast  Level Estimated
Sun 12:21:00 AM 44.9310 128.3886 115° Southeast  Level Estimated
Sun 12:22:00 AM 44.9087 128.4546 115° Southeast  Level Estimated
Sun 12:23:00 AM 44.8864 128.5205 116° Southeast  Level Estimated
Sun 12:24:00 AM 44.8641 128.5864 116° Southeast  Level Estimated
Sun 12:25:00 AM 44.8417 128.6522 116° Southeast  Level Estimated
Sun 12:26:00 AM 44.8192 128.7180 116° Southeast  Level Estimated
Sun 12:27:00 AM 44.7968 128.7837 116° Southeast  Level Estimated
Sun 12:28:00 AM 44.7743 128.8494 116° Southeast  Level Estimated
Sun 12:29:00 AM 44.7517 128.9150 116° Southeast  Level Estimated
Sun 12:30:00 AM 44.7291 128.9806 116° Southeast  Level Estimated
Sun 12:31:00 AM 44.7065 129.0461 116° Southeast  Level Estimated
Sun 12:32:00 AM 44.6839 129.1116 116° Southeast  Level Estimated
Sun 12:33:00 AM 44.6612 129.1770 116° Southeast  Level Estimated
Sun 12:34:00 AM 44.6385 129.2424 116° Southeast  Level Estimated
Sun 12:35:00 AM 44.6157 129.3077 116° Southeast  Level Estimated
Sun 12:36:00 AM 44.5929 129.3729 116° Southeast  Level Estimated
Sun 12:37:00 AM 44.5701 129.4381 116° Southeast  Level Estimated
Sun 12:38:00 AM 44.5472 129.5033 116° Southeast  Level Estimated
Sun 12:39:00 AM 44.5243 129.5684 116° Southeast  Level Estimated
Sun 12:40:00 AM 44.5241 129.5690 116° Southeast  Level Estimated
Sun 12:41:00 AM 44.5241 129.5690 35° Northeast  Level Estimated
Sun 12:42:00 AM 44.5241 129.5690 35° Northeast  Level Estimated
Sun 12:43:00 AM 44.5241 129.5690 35° Northeast  Level Estimated
Sun 12:44:00 AM 44.5241 129.5690 35° Northeast  Level Estimated
Sun 12:45:00 AM 44.5241 129.5690 35° Northeast  Level Estimated
Sun 12:46:00 AM 44.5241 129.5690 35° Northeast  Level Estimated
Sun 12:47:00 AM 44.5241 129.5690 35° Northeast  Level Estimated
Sun 12:48:00 AM 44.5241 129.5690 35° Northeast  Level Estimated
Sun 12:49:00 AM 44.5241 129.5690 35° Northeast  Level Estimated
Sun 12:50:00 AM 44.5241 129.5690 35° Northeast  Level Estimated
Sun 12:51:00 AM 44.5241 129.5690 35° Northeast  Level Estimated
Sun 12:52:00 AM 44.5241 129.5690 35° Northeast  Level Estimated
Sun 12:53:00 AM 44.5241 129.5690 35° Northeast  Level Estimated
Sun 12:54:00 AM 44.5241 129.5690 35° Northeast  Level Estimated

Login

Don't have an account? Register now (free) for customized features, flight alerts, and more!